VECC/CCU METAR and TAF weather

Enter ICAO airport designator
Station Type Date Time Source
VECC METAR 2020/01/22 12:30 UTC NOAA

VECC 221230Z 00000KT 3200 HZ NSC 21/15 Q1015 NOSIG


Station Type Date Time Source
VECC Decoded METAR 2020/01/22 12:30 UTC NOAA

Calcutta / Dum Dum, India (VECC) 22-39N 088-27E 6M
Jan 22, 2020 - 07:30 AM EST / 2020.01.22 1230 UTC
Wind: Calm:0
Visibility: 1 mile(s):0
Weather: haze
Temperature: 69 F (21 C)
Dew Point: 59 F (15 C)
Relative Humidity: 68%
Pressure (altimeter): 29.97 in. Hg (1015 hPa)
ob: VECC 221230Z 00000KT 3200 HZ NSC 21/15 Q1015 NOSIG
cycle: 12

Station Type Date Time Source
VECC TAF 2020/01/22 12:39 UTC NOAA

TAF VECC 221100Z 2212/2318 00000KT 3200 HZ NSC
BECMG 2218/2220 2200 HZ
BECMG 2300/2302 1200 BR
BECMG 2303/2305 34005KT 2200 HZ SCT100
BECMG 2307/2309 3500 HZ
BECMG 2314/2316 00000KT 2500 HZ

Example: see airport list